createdAt,value
2022-08-09T00:00:11.390Z,47.78
2022-08-09T00:02:43.016Z,47.84
2022-08-09T00:06:19.251Z,47.96
2022-08-09T00:08:10.110Z,47.77
2022-08-09T00:10:39.592Z,47.75
2022-08-09T00:13:16.678Z,47.85
2022-08-09T00:15:59.599Z,48.21
2022-08-09T00:18:30.392Z,48.08
2022-08-09T00:20:59.327Z,48.37
2022-08-09T00:23:54.806Z,48.40
2022-08-09T00:26:16.327Z,48.21
2022-08-09T00:28:52.167Z,48.35
2022-08-09T00:31:57.770Z,48.66
2022-08-09T00:34:09.326Z,48.52
2022-08-09T00:36:40.076Z,48.87
2022-08-09T00:39:16.912Z,48.55
2022-08-09T00:44:14.340Z,48.75
2022-08-09T00:44:47.049Z,48.74
2022-08-09T00:47:15.508Z,48.78
2022-08-09T00:49:54.697Z,48.85
2022-08-09T00:52:29.999Z,48.79
2022-08-09T00:55:00.392Z,49.09
2022-08-09T00:57:34.644Z,48.95
2022-08-09T01:00:22.028Z,49.45
2022-08-09T01:02:52.363Z,49.12
2022-08-09T01:05:46.467Z,49.30
2022-08-09T01:08:26.705Z,49.31
2022-08-09T01:11:04.179Z,49.32
2022-08-09T01:13:59.234Z,49.20
2022-08-09T01:16:31.474Z,49.14
2022-08-09T01:19:04.665Z,49.08
2022-08-09T01:21:51.426Z,49.04
2022-08-09T01:24:36.587Z,49.04
2022-08-09T01:27:10.534Z,48.92
2022-08-09T01:29:55.646Z,49.06
2022-08-09T01:32:31.771Z,49.05
2022-08-09T01:35:07.111Z,49.11
2022-08-09T01:38:09.822Z,49.08
2022-08-09T01:40:45.083Z,49.13
2022-08-09T01:43:24.270Z,48.93
2022-08-09T01:45:57.978Z,49.19
2022-08-09T01:48:29.596Z,49.03
2022-08-09T01:51:00.635Z,49.11
2022-08-09T01:53:41.815Z,48.95
2022-08-09T01:56:10.925Z,49.08
2022-08-09T01:58:42.363Z,49.00
2022-08-09T02:01:11.844Z,49.01
2022-08-09T02:03:48.248Z,49.36
2022-08-09T02:06:17.399Z,49.61
2022-08-09T02:08:58.567Z,49.60
2022-08-09T02:11:42.239Z,49.43
2022-08-09T02:14:25.248Z,49.75
2022-08-09T02:17:15.470Z,49.82
2022-08-09T02:19:43.949Z,49.83
2022-08-09T02:22:17.807Z,50.39
2022-08-09T02:24:59.761Z,49.96
2022-08-09T02:27:43.517Z,50.03
2022-08-09T02:30:19.453Z,49.85
2022-08-09T02:32:48.493Z,50.18
2022-08-09T02:35:26.084Z,50.08
2022-08-09T02:38:11.797Z,50.03
2022-08-09T02:41:00.371Z,49.69
2022-08-09T02:43:53.544Z,50.16
2022-08-09T02:46:23.867Z,50.14
2022-08-09T02:48:53.158Z,50.24
2022-08-09T02:51:24.233Z,50.29
2022-08-09T02:54:00.493Z,50.30
2022-08-09T02:56:31.384Z,50.40
2022-08-09T02:59:02.687Z,50.35
2022-08-09T03:01:43.194Z,50.30
2022-08-09T03:04:26.394Z,50.28
2022-08-09T03:06:59.739Z,50.25
2022-08-09T03:09:42.625Z,50.14
2022-08-09T03:12:13.303Z,50.30
2022-08-09T03:14:42.231Z,50.18
2022-08-09T03:17:16.487Z,50.13
2022-08-09T03:19:59.520Z,50.25
2022-08-09T03:22:41.409Z,49.99
2022-08-09T03:25:26.888Z,50.36
2022-08-09T03:28:00.990Z,50.60
2022-08-09T03:30:33.667Z,50.07
2022-08-09T03:33:17.255Z,50.40
2022-08-09T03:36:12.819Z,50.37
2022-08-09T03:38:37.273Z,50.18
2022-08-09T03:41:09.965Z,50.46
2022-08-09T03:43:42.733Z,50.70
2022-08-09T03:46:27.123Z,50.53
2022-08-09T03:49:04.361Z,50.49
2022-08-09T03:51:56.365Z,50.95
2022-08-09T03:54:30.961Z,50.53
2022-08-09T03:57:01.499Z,50.90
2022-08-09T03:59:52.886Z,50.97
2022-08-09T04:02:26.966Z,51.09
2022-08-09T04:04:57.223Z,50.98
2022-08-09T04:07:47.488Z,51.00
2022-08-09T04:10:14.762Z,50.95
2022-08-09T04:12:49.797Z,51.03
2022-08-09T04:15:29.397Z,51.11
2022-08-09T04:18:08.546Z,51.20
2022-08-09T04:20:37.679Z,51.22
2022-08-09T04:23:10.067Z,51.61
2022-08-09T04:25:44.311Z,51.30
2022-08-09T04:28:12.472Z,51.77
2022-08-09T04:30:44.800Z,51.31
2022-08-09T04:33:12.726Z,51.48
2022-08-09T04:35:43.312Z,51.44
2022-08-09T04:38:11.442Z,51.26
2022-08-09T04:40:56.375Z,51.55
2022-08-09T04:43:25.781Z,51.45
2022-08-09T04:45:54.452Z,50.98
2022-08-09T04:48:23.658Z,51.54
2022-08-09T04:51:02.143Z,51.92
2022-08-09T04:53:31.329Z,51.97
2022-08-09T04:55:59.951Z,51.92
2022-08-09T04:58:29.053Z,51.76
2022-08-09T05:00:59.763Z,51.70
2022-08-09T05:03:40.322Z,51.95
2022-08-09T05:06:27.171Z,51.96
2022-08-09T05:09:00.363Z,51.61
2022-08-09T05:11:30.385Z,52.16
2022-08-09T05:13:58.527Z,52.81
2022-08-09T05:16:31.475Z,52.25
2022-08-09T05:19:00.704Z,52.77
2022-08-09T05:21:46.589Z,52.61
2022-08-09T05:24:19.711Z,52.34
2022-08-09T05:26:47.960Z,52.54
2022-08-09T05:29:21.516Z,52.04
2022-08-09T05:31:57.114Z,52.55
2022-08-09T05:34:31.340Z,52.17
2022-08-09T05:37:06.118Z,52.81
2022-08-09T05:39:36.561Z,52.72
2022-08-09T05:42:17.312Z,52.48
2022-08-09T05:44:56.773Z,52.31
2022-08-09T05:47:27.045Z,52.53
2022-08-09T05:50:23.871Z,52.37
2022-08-09T05:52:53.869Z,52.01
2022-08-09T05:55:24.018Z,51.89
2022-08-09T05:57:57.555Z,52.14
2022-08-09T06:00:28.991Z,52.41
2022-08-09T06:02:57.493Z,52.56
2022-08-09T06:05:49.605Z,52.76
2022-08-09T06:08:19.687Z,52.88
2022-08-09T06:10:52.949Z,52.85
2022-08-09T06:13:21.215Z,53.00
2022-08-09T06:15:51.443Z,52.79
2022-08-09T06:18:20.935Z,53.15
2022-08-09T06:20:57.432Z,52.99
2022-08-09T06:23:57.519Z,53.20
2022-08-09T06:26:21.071Z,53.34
2022-08-09T06:28:50.287Z,53.87
2022-08-09T06:31:31.115Z,53.63
2022-08-09T06:34:07.461Z,53.97
2022-08-09T06:36:35.379Z,54.04
2022-08-09T06:39:09.313Z,53.68
2022-08-09T06:41:58.824Z,53.74
2022-08-09T06:44:27.358Z,53.55
2022-08-09T06:46:55.708Z,53.42
2022-08-09T06:49:44.784Z,53.81
2022-08-09T06:52:11.939Z,53.56
2022-08-09T06:54:41.927Z,53.81
2022-08-09T06:57:09.600Z,53.61
2022-08-09T07:00:51.171Z,53.68
2022-08-09T07:02:30.751Z,53.77
2022-08-09T07:04:59.815Z,53.89
2022-08-09T07:07:28.570Z,53.47
2022-08-09T07:10:29.617Z,53.52
2022-08-09T07:12:59.822Z,53.73
2022-08-09T07:16:38.529Z,53.56
2022-08-09T07:18:15.313Z,53.47
2022-08-09T07:20:44.547Z,53.63
2022-08-09T07:23:18.161Z,53.72
2022-08-09T07:25:52.190Z,53.71
2022-08-09T07:28:29.881Z,53.59
2022-08-09T07:30:57.627Z,54.01
2022-08-09T07:33:25.327Z,53.84
2022-08-09T07:35:58.558Z,53.70
2022-08-09T07:38:31.067Z,53.79
2022-08-09T07:41:11.499Z,53.69
2022-08-09T07:43:50.051Z,54.06
2022-08-09T07:46:23.508Z,54.09
2022-08-09T07:48:59.500Z,54.27
2022-08-09T07:52:05.484Z,54.25
2022-08-09T07:54:19.244Z,54.14
2022-08-09T07:56:59.392Z,54.13
2022-08-09T07:59:34.503Z,54.32
2022-08-09T08:02:19.217Z,54.42
2022-08-09T08:04:48.886Z,54.12
2022-08-09T08:08:43.397Z,53.98
2022-08-09T08:10:10.554Z,54.03
2022-08-09T08:12:42.899Z,54.06
2022-08-09T08:15:13.862Z,54.14
2022-08-09T08:17:55.081Z,54.29
2022-08-09T08:20:30.321Z,54.30
2022-08-09T08:23:03.547Z,54.23
2022-08-09T08:25:44.569Z,54.33
2022-08-09T08:28:18.321Z,54.66
2022-08-09T08:30:53.653Z,54.43
2022-08-09T08:33:24.523Z,54.60
2022-08-09T08:35:58.958Z,54.87
2022-08-09T08:38:28.715Z,54.62
2022-08-09T08:40:57.700Z,54.53
2022-08-09T08:43:27.639Z,54.72
2022-08-09T08:46:24.807Z,54.67
2022-08-09T08:48:53.265Z,54.71
2022-08-09T08:51:22.528Z,54.73
2022-08-09T08:54:03.946Z,54.86
2022-08-09T08:56:35.302Z,54.87
2022-08-09T08:59:07.819Z,54.78
2022-08-09T09:01:53.401Z,54.67
2022-08-09T09:04:29.760Z,54.89
2022-08-09T09:07:09.187Z,54.84
2022-08-09T09:09:58.043Z,54.82
2022-08-09T09:12:31.393Z,54.33
2022-08-09T09:15:06.455Z,54.49
2022-08-09T09:17:49.538Z,54.34
2022-08-09T09:20:21.606Z,54.24
2022-08-09T09:22:55.745Z,54.35
2022-08-09T09:26:00.905Z,54.18
2022-08-09T09:29:01.833Z,54.18
2022-08-09T09:31:17.517Z,54.03
2022-08-09T09:34:14.538Z,54.30
2022-08-09T09:36:51.030Z,54.19
2022-08-09T09:39:23.696Z,54.11
2022-08-09T09:42:24.865Z,53.98
2022-08-09T09:44:58.673Z,53.83
2022-08-09T09:47:29.554Z,53.84
2022-08-09T09:50:14.354Z,53.79
2022-08-09T09:52:53.752Z,53.97
2022-08-09T09:55:31.904Z,53.65
2022-08-09T09:58:17.217Z,53.91
2022-08-09T10:00:52.718Z,53.62
2022-08-09T10:03:42.941Z,53.40
2022-08-09T10:06:11.763Z,53.50
2022-08-09T10:08:54.396Z,53.39
2022-08-09T10:12:00.132Z,53.54
2022-08-09T10:14:30.515Z,52.95
2022-08-09T10:17:40.304Z,53.00
2022-08-09T10:19:59.353Z,52.95
2022-08-09T10:22:33.511Z,52.41
2022-08-09T10:25:03.530Z,52.30
2022-08-09T10:27:45.306Z,51.66
2022-08-09T10:33:29.670Z,51.56
2022-08-09T10:36:03.254Z,51.52
2022-08-09T10:38:55.400Z,51.80
2022-08-09T10:41:20.598Z,51.57
2022-08-09T10:43:58.561Z,51.32
2022-08-09T10:47:04.077Z,51.45
2022-08-09T10:49:54.189Z,51.77
2022-08-09T10:52:42.915Z,51.86
2022-08-09T10:55:25.618Z,51.55
2022-08-09T10:57:59.993Z,50.74
2022-08-09T11:00:35.215Z,51.00
2022-08-09T11:03:19.208Z,50.19
2022-08-09T11:06:24.522Z,50.84
2022-08-09T11:08:54.894Z,51.28
2022-08-09T11:11:23.966Z,51.04
2022-08-09T11:14:28.112Z,50.33
2022-08-09T11:16:57.224Z,49.54
2022-08-09T11:20:10.126Z,50.39
2022-08-09T11:23:10.028Z,51.12
2022-08-09T11:25:48.241Z,49.46
2022-08-09T11:28:38.740Z,49.56
2022-08-09T11:31:53.168Z,48.92
2022-08-09T11:34:33.108Z,48.95
2022-08-09T11:37:07.445Z,47.72
2022-08-09T11:40:02.964Z,48.70
2022-08-09T11:42:48.487Z,49.18
2022-08-09T11:45:26.273Z,49.20
2022-08-09T11:48:24.946Z,49.08
2022-08-09T11:52:54.494Z,48.49
2022-08-09T11:54:27.540Z,48.77
2022-08-09T11:58:00.703Z,47.84
2022-08-09T12:00:26.266Z,47.21
2022-08-09T12:02:56.123Z,47.90
2022-08-09T12:05:37.143Z,46.88
2022-08-09T12:08:09.031Z,46.93
2022-08-09T12:10:44.957Z,46.73
2022-08-09T12:14:09.439Z,46.92
2022-08-09T12:16:30.598Z,46.63
2022-08-09T12:19:09.380Z,46.79
2022-08-09T12:21:50.456Z,47.13
2022-08-09T12:24:23.709Z,46.80
2022-08-09T12:29:13.475Z,46.23
2022-08-09T12:30:02.034Z,46.18
2022-08-09T12:32:44.359Z,45.76
2022-08-09T12:35:17.049Z,46.12
2022-08-09T12:37:51.748Z,45.59
2022-08-09T12:40:23.143Z,46.11
2022-08-09T12:42:53.047Z,46.47
2022-08-09T12:45:33.889Z,46.05
2022-08-09T12:48:31.031Z,45.58
2022-08-09T12:51:03.913Z,45.90
2022-08-09T12:53:37.264Z,46.28
2022-08-09T12:56:39.225Z,46.52
2022-08-09T12:59:08.838Z,45.25
2022-08-09T13:01:39.402Z,45.26
2022-08-09T13:04:36.294Z,45.00
2022-08-09T13:07:14.370Z,44.62
2022-08-09T13:09:48.204Z,43.90
2022-08-09T13:12:23.808Z,44.07
2022-08-09T13:14:54.245Z,43.19
2022-08-09T13:18:02.982Z,43.97
2022-08-09T13:20:16.106Z,43.40
2022-08-09T13:23:01.265Z,44.13
2022-08-09T13:25:42.025Z,43.66
2022-08-09T13:28:18.734Z,43.51
2022-08-09T13:32:14.185Z,43.50
2022-08-09T13:33:54.693Z,42.66
2022-08-09T13:36:42.138Z,43.05
2022-08-09T13:41:39.018Z,42.48
2022-08-09T13:42:02.157Z,43.24
2022-08-09T13:44:30.431Z,42.72
2022-08-09T13:47:27.118Z,43.00
2022-08-09T13:49:56.079Z,42.98
2022-08-09T13:52:27.547Z,43.46
2022-08-09T13:54:59.674Z,42.91
2022-08-09T13:57:37.216Z,41.68
2022-08-09T14:00:12.093Z,42.35
2022-08-09T14:02:42.538Z,42.48
2022-08-09T14:06:00.617Z,42.72
2022-08-09T14:08:18.223Z,42.43
2022-08-09T14:10:52.214Z,43.24
2022-08-09T14:14:15.449Z,42.28
2022-08-09T14:16:14.292Z,41.16
2022-08-09T14:18:51.962Z,41.87
2022-08-09T14:21:22.252Z,42.16
2022-08-09T14:23:56.636Z,40.95
2022-08-09T14:26:30.268Z,41.50
2022-08-09T14:29:01.016Z,41.15
2022-08-09T14:31:49.602Z,41.12
2022-08-09T14:34:17.618Z,41.87
2022-08-09T14:36:55.484Z,41.24
2022-08-09T14:39:45.938Z,41.56
2022-08-09T14:42:12.254Z,42.00
2022-08-09T14:44:48.666Z,42.39
2022-08-09T14:47:39.971Z,42.12
2022-08-09T14:50:04.962Z,41.55
2022-08-09T14:52:33.222Z,41.44
2022-08-09T14:55:02.619Z,39.58
2022-08-09T14:57:32.019Z,40.33
2022-08-09T15:00:12.685Z,41.15
2022-08-09T15:02:40.423Z,39.45
2022-08-09T15:05:10.487Z,39.91
2022-08-09T15:07:38.257Z,40.31
2022-08-09T15:10:14.369Z,40.90
2022-08-09T15:12:45.102Z,40.44
2022-08-09T15:15:13.487Z,40.69
2022-08-09T15:17:41.755Z,40.40
2022-08-09T15:20:15.311Z,40.38
2022-08-09T15:23:56.183Z,41.29
2022-08-09T15:25:48.848Z,41.67
2022-08-09T15:28:26.076Z,41.29
2022-08-09T15:31:07.395Z,41.06
2022-08-09T15:34:32.096Z,41.16
2022-08-09T15:36:29.394Z,41.41
2022-08-09T15:38:58.875Z,41.43
2022-08-09T15:41:31.978Z,41.71
2022-08-09T15:44:01.909Z,41.88
2022-08-09T15:46:33.021Z,41.70
2022-08-09T15:49:21.613Z,41.62
2022-08-09T15:52:02.886Z,41.24
2022-08-09T15:54:50.484Z,40.68
2022-08-09T15:57:35.573Z,41.25
2022-08-09T16:00:15.189Z,41.72
2022-08-09T16:02:54.537Z,41.72
2022-08-09T16:05:26.390Z,41.92
2022-08-09T16:07:54.088Z,41.37
2022-08-09T16:10:38.508Z,40.88
2022-08-09T16:13:20.840Z,40.68
2022-08-09T16:16:12.353Z,40.46
2022-08-09T16:18:45.627Z,40.01
2022-08-09T16:21:17.690Z,39.87
2022-08-09T16:23:55.669Z,39.86
2022-08-09T16:26:34.707Z,39.35
2022-08-09T16:29:11.683Z,39.64
2022-08-09T16:32:18.082Z,39.44
2022-08-09T16:34:29.896Z,39.91
2022-08-09T16:37:17.582Z,39.32
2022-08-09T16:40:02.635Z,39.52
2022-08-09T16:42:33.717Z,40.22
2022-08-09T16:45:03.087Z,39.72
2022-08-09T16:48:42.505Z,39.52
2022-08-09T16:50:32.430Z,39.41
2022-08-09T16:53:02.068Z,38.96
2022-08-09T16:56:00.381Z,39.06
2022-08-09T16:58:19.513Z,39.58
2022-08-09T17:00:50.827Z,40.12
2022-08-09T17:03:21.643Z,39.43
2022-08-09T17:06:06.951Z,39.46
2022-08-09T17:08:42.776Z,38.99
2022-08-09T17:11:15.300Z,39.04
2022-08-09T17:13:45.059Z,38.94
2022-08-09T17:16:14.421Z,39.49
2022-08-09T17:18:42.236Z,39.76
2022-08-09T17:21:13.162Z,39.77
2022-08-09T17:24:21.101Z,40.20
2022-08-09T17:26:31.474Z,40.20
2022-08-09T17:28:59.927Z,40.13
2022-08-09T17:31:29.872Z,40.26
2022-08-09T17:34:06.495Z,40.58
2022-08-09T17:36:54.183Z,40.47
2022-08-09T17:39:24.770Z,40.36
2022-08-09T17:41:52.877Z,39.77
2022-08-09T17:44:41.668Z,40.20
2022-08-09T17:47:10.496Z,39.99
2022-08-09T17:49:51.267Z,40.07
2022-08-09T17:52:25.062Z,39.41
2022-08-09T17:54:55.294Z,39.57
2022-08-09T17:58:03.986Z,39.83
2022-08-09T18:00:13.683Z,40.22
2022-08-09T18:02:50.450Z,39.89
2022-08-09T18:05:38.823Z,40.11
2022-08-09T18:08:13.336Z,40.04
2022-08-09T18:10:45.989Z,39.54
2022-08-09T18:13:39.731Z,39.75
2022-08-09T18:16:16.945Z,39.87
2022-08-09T18:19:03.852Z,40.12
2022-08-09T18:21:40.852Z,39.82
2022-08-09T18:24:14.459Z,40.00
2022-08-09T18:26:46.822Z,39.80
2022-08-09T18:30:40.109Z,39.92
2022-08-09T18:32:04.980Z,39.72
2022-08-09T18:34:36.423Z,39.62
2022-08-09T18:37:04.616Z,40.16
2022-08-09T18:39:39.514Z,40.15
2022-08-09T18:42:09.617Z,39.83
2022-08-09T18:44:40.312Z,40.17
2022-08-09T18:47:15.914Z,39.86
2022-08-09T18:49:47.275Z,39.77
2022-08-09T18:52:18.595Z,40.40
2022-08-09T18:54:53.542Z,39.89
2022-08-09T18:57:22.939Z,40.37
2022-08-09T18:59:58.890Z,40.23
2022-08-09T19:02:32.314Z,40.07
2022-08-09T19:05:14.591Z,39.98
2022-08-09T19:08:03.625Z,40.20
2022-08-09T19:10:37.890Z,39.87
2022-08-09T19:13:22.549Z,40.14
2022-08-09T19:15:58.677Z,40.21
2022-08-09T19:18:33.731Z,40.13
2022-08-09T19:21:09.396Z,40.22
2022-08-09T19:24:36.357Z,40.30
2022-08-09T19:26:29.465Z,40.22
2022-08-09T19:29:01.630Z,40.25
2022-08-09T19:31:30.469Z,40.12
2022-08-09T19:33:58.537Z,40.29
2022-08-09T19:36:30.980Z,40.10
2022-08-09T19:39:03.434Z,40.41
2022-08-09T19:41:35.649Z,40.19
2022-08-09T19:44:04.081Z,40.10
2022-08-09T19:46:35.137Z,39.90
2022-08-09T19:50:07.860Z,40.01
2022-08-09T19:51:55.287Z,40.03
2022-08-09T19:54:24.947Z,40.08
2022-08-09T19:56:53.062Z,40.11
2022-08-09T19:59:57.564Z,40.28
2022-08-09T20:02:17.314Z,40.31
2022-08-09T20:04:58.364Z,40.40
2022-08-09T20:07:56.941Z,40.00
2022-08-09T20:10:17.631Z,40.35
2022-08-09T20:12:49.940Z,40.01
2022-08-09T20:16:37.861Z,40.10
2022-08-09T20:18:08.329Z,40.23
2022-08-09T20:20:37.740Z,40.31
2022-08-09T20:23:07.540Z,40.06
2022-08-09T20:25:49.625Z,40.12
2022-08-09T20:28:24.392Z,40.11
2022-08-09T20:30:56.018Z,40.12
2022-08-09T20:33:23.708Z,40.13
2022-08-09T20:35:52.471Z,40.21
2022-08-09T20:38:37.593Z,40.21
2022-08-09T20:41:09.575Z,40.10
2022-08-09T20:43:38.095Z,40.56
2022-08-09T20:46:33.515Z,40.26
2022-08-09T20:49:01.973Z,40.77
2022-08-09T20:51:29.674Z,40.68
2022-08-09T20:54:16.489Z,40.69
2022-08-09T20:56:47.312Z,40.39
2022-08-09T20:59:24.935Z,40.62
2022-08-09T21:02:06.860Z,40.52
2022-08-09T21:05:51.411Z,40.80
2022-08-09T21:07:30.014Z,40.57
2022-08-09T21:10:09.574Z,40.53
2022-08-09T21:12:39.402Z,40.49
2022-08-09T21:15:12.614Z,40.95
2022-08-09T21:18:22.512Z,40.70
2022-08-09T21:20:29.977Z,40.89
2022-08-09T21:22:59.317Z,40.56
2022-08-09T21:25:56.049Z,40.59
2022-08-09T21:28:34.674Z,40.97
2022-08-09T21:31:18.032Z,41.15
2022-08-09T21:33:50.551Z,41.43
2022-08-09T21:36:19.777Z,40.91
2022-08-09T21:38:56.751Z,41.43
2022-08-09T21:41:59.858Z,41.14
2022-08-09T21:44:33.100Z,41.48
2022-08-09T21:47:02.977Z,41.37
2022-08-09T21:49:40.587Z,41.08
2022-08-09T21:52:16.314Z,41.55
2022-08-09T21:54:49.453Z,41.19
2022-08-09T21:57:25.494Z,41.30
2022-08-09T22:00:09.582Z,41.32
2022-08-09T22:02:37.966Z,41.74
2022-08-09T22:05:17.077Z,41.81
2022-08-09T22:07:53.409Z,41.95
2022-08-09T22:10:24.070Z,41.96
2022-08-09T22:12:53.536Z,42.16
2022-08-09T22:15:23.396Z,41.93
2022-08-09T22:18:02.696Z,42.32
2022-08-09T22:20:31.341Z,42.18
2022-08-09T22:22:59.923Z,42.08
2022-08-09T22:26:08.074Z,42.68
2022-08-09T22:28:29.629Z,42.64
2022-08-09T22:31:00.783Z,42.61
2022-08-09T22:33:42.667Z,42.49
2022-08-09T22:36:19.272Z,42.77
2022-08-09T22:38:47.642Z,42.89
2022-08-09T22:41:16.098Z,43.06
2022-08-09T22:44:03.430Z,42.88
2022-08-09T22:48:13.808Z,42.99
2022-08-09T22:49:20.627Z,43.20
2022-08-09T22:51:57.365Z,43.00
2022-08-09T22:54:27.261Z,43.35
2022-08-09T22:56:56.679Z,43.59
2022-08-09T22:59:55.325Z,43.42
2022-08-09T23:02:14.984Z,43.18
2022-08-09T23:04:53.724Z,43.58
2022-08-09T23:08:27.549Z,43.93
2022-08-09T23:10:26.931Z,43.26
2022-08-09T23:12:54.642Z,43.33
2022-08-09T23:15:23.754Z,43.87
2022-08-09T23:17:51.401Z,43.80
2022-08-09T23:20:19.242Z,43.59
2022-08-09T23:22:46.939Z,43.96
2022-08-09T23:25:14.696Z,43.78
2022-08-09T23:27:57.265Z,44.16
2022-08-09T23:30:31.579Z,44.11
2022-08-09T23:32:59.262Z,43.71
2022-08-09T23:35:27.236Z,44.21
2022-08-09T23:37:54.880Z,44.12
2022-08-09T23:40:22.782Z,43.97
2022-08-09T23:42:50.526Z,44.17
2022-08-09T23:45:36.580Z,44.17
2022-08-09T23:48:09.137Z,44.39
2022-08-09T23:50:37.185Z,44.11
2022-08-09T23:53:05.539Z,44.57
2022-08-09T23:55:34.711Z,44.57
2022-08-09T23:58:10.356Z,44.62
